Austin, TX (78746)

10:58 CDT le 25 avril 2015 (GMT -0500)
Lost Creek | | Change Station
CLOSE
Current Station
Stations météorologiques personnelles
Location: Austin, TX
Altitude: 974 ft
Stations météo à proximité

Alt. 974 ft 30.28 °N, 97.83 °W | Updated 13 minutes ago

Ciel dégagé
Ciel dégagé
79.6 ° F
Paraît 82 ° F
N
1.0
Vent Variable Vent de OSO
Gusts 5.0 mph

Aujourd'hui
Haut(e) -- | Bas -- ° F
--% Risque de précip.
Hier
Haut(e) -- | Bas -- ° F
Precip. -- pouce
6:53 AM 8:05 PM
Lune montante, 47% visible
Pression 29.77 pouce
Visibilité 10.0 Miles terrestres
Nuages Ciel dégagé
indice de chaleur 82 ° F
Point de rosée 66 ° F
Humidité 63%
Précipitations 0.00 pouce
Profondeur de la couche neigeuse Non disponible.
UV 7 sur 12
Pollen 8.50 sur 12
Qualité de l'air Non disponible.
Flu Activity Local Activity
METAR KATT 251551Z AUTO 26004KT 10SM CLR 28/18 A2981 RMK AO2 SLP079 T02830183

More Conditions Fewer Conditions

Pression 29.77 pouce
Visibilité 10.0 Miles terrestres
Nuages Ciel dégagé
indice de chaleur 82 ° F
Point de rosée 66 ° F
Humidité 63%
Précipitations 0.00 pouce
Profondeur de la couche neigeuse Non disponible.
UV 7 sur 12
Pollen 8.50 sur 12
Qualité de l'air Non disponible.
Flu Activity Local Activity
METAR KATT 251551Z AUTO 26004KT 10SM CLR 28/18 A2981 RMK AO2 SLP079 T02830183

More Conditions Fewer Conditions

10-Day Weather Forecast

Almanac

Astronomie

Apr. 25, 2015 Lever Coucher
Temps réel
Crépuscule civil
Crépuscule nautique
Crépuscule astronomique
Lune
Durée de lumière visible
Longueur du jour
Tomorrow will be .
, % of the Moon is Illuminated

Extrêmes aujourd'hui

State Highs State Lows

Community

WunderPhotos

Upload Photos

1,816,719 Photos téléchargées !

WunderBlogs® & News

Nearby

Qualité de l'air

  Qualité de l'air Indice de la qualité de l'air Polluant
Not available.

Épaisseur de neige

Station Depth Altitude

Activité sismique

Ville Distance Mag. Time & Date
Minimum magnitude displayed is 2.5.

Températures des eaux côtières

Lieu Température

Stations

Stations météo à proximité

Emplacement de la station Température Refroidissement éolien Point de rosée Humidité Vent Precip. Alt. Mise à jour Type